createdAt,value
2023-03-28T14:51:30.337Z,5.00
2023-03-28T14:52:31.671Z,2.90
2023-03-28T14:53:31.523Z,2.70
2023-03-28T14:54:31.438Z,2.90
2023-03-28T14:55:31.267Z,2.90
2023-03-28T14:56:31.264Z,2.80
2023-03-28T14:57:31.315Z,2.90
2023-03-28T14:58:31.237Z,2.70
2023-03-28T14:59:31.252Z,3.00
2023-03-28T15:00:31.217Z,2.90
2023-03-28T15:01:32.794Z,2.90
2023-03-28T15:02:31.222Z,2.90
2023-03-28T15:03:31.327Z,3.20
2023-03-28T15:04:31.187Z,2.90
2023-03-28T15:05:31.152Z,2.80
2023-03-28T15:06:31.211Z,2.70
2023-03-28T15:07:31.148Z,2.90
2023-03-28T15:08:31.209Z,3.10
2023-03-28T15:09:31.118Z,2.90
2023-03-28T15:10:31.113Z,2.90
2023-03-28T15:11:31.133Z,2.80
2023-03-28T15:12:31.122Z,3.10
2023-03-28T15:13:31.082Z,2.80
2023-03-28T15:14:31.065Z,3.00
2023-03-28T15:15:31.058Z,2.90
2023-03-28T15:16:31.029Z,2.70
2023-03-28T15:17:31.038Z,2.60
2023-03-28T15:18:31.036Z,2.70
2023-03-28T15:19:30.990Z,2.60
2023-03-28T15:20:30.978Z,2.80
2023-03-28T15:21:30.951Z,2.70
2023-03-28T15:22:30.966Z,2.80
2023-03-28T15:23:30.966Z,2.80
2023-03-28T15:24:30.923Z,2.60
2023-03-28T15:25:30.924Z,2.70
2023-03-28T15:26:30.971Z,2.70
2023-03-28T15:27:30.956Z,2.80
2023-03-28T15:28:30.945Z,2.80
2023-03-28T15:29:32.817Z,2.70
2023-03-28T15:30:30.872Z,2.60
2023-03-28T15:31:30.893Z,2.80
2023-03-28T15:32:30.860Z,2.70
2023-03-28T15:33:30.882Z,2.60
2023-03-28T15:34:30.802Z,2.50
2023-03-28T15:35:31.434Z,2.40
2023-03-28T15:36:30.793Z,2.70
2023-03-28T15:37:30.800Z,2.70
2023-03-28T15:38:30.753Z,2.90
2023-03-28T15:39:30.828Z,2.40
2023-03-28T15:40:30.762Z,2.80
2023-03-28T15:41:30.720Z,2.70
2023-03-28T15:42:30.731Z,2.70
2023-03-28T15:43:30.699Z,2.40
2023-03-28T15:44:30.729Z,2.50
2023-03-28T15:45:30.685Z,2.50
2023-03-28T15:46:30.758Z,2.30
2023-03-28T15:47:30.776Z,2.60
2023-03-28T15:48:30.633Z,2.60
2023-03-28T15:49:30.732Z,2.60
2023-03-28T15:50:30.649Z,2.40
2023-03-28T15:51:30.626Z,2.40
2023-03-28T15:52:30.625Z,2.60
2023-03-28T15:53:30.591Z,2.50
2023-03-28T15:54:32.049Z,2.40
2023-03-28T15:55:31.645Z,2.60
2023-03-28T15:56:30.754Z,2.30
2023-03-28T15:57:30.658Z,2.30
2023-03-28T15:58:30.534Z,2.40
2023-03-28T15:59:30.710Z,1.90
2023-03-28T16:00:30.576Z,2.10
2023-03-28T16:01:30.538Z,2.00
2023-03-28T16:02:30.979Z,2.30
2023-03-28T16:03:30.584Z,2.20
2023-03-28T16:04:30.449Z,2.00
2023-03-28T16:05:30.505Z,2.10
2023-03-28T16:06:33.012Z,2.10
2023-03-28T16:07:31.428Z,2.00
2023-03-28T16:08:30.421Z,2.00
2023-03-28T16:09:30.405Z,1.80
2023-03-28T16:10:30.429Z,2.10
2023-03-28T16:11:30.388Z,2.10
2023-03-28T16:12:31.385Z,1.90
2023-03-28T16:13:30.352Z,2.00
2023-03-28T16:14:30.639Z,2.10
2023-03-28T16:15:30.371Z,2.10
2023-03-28T16:16:30.378Z,2.00
2023-03-28T16:17:30.335Z,1.80
2023-03-28T16:18:30.320Z,1.90
2023-03-28T16:19:30.301Z,2.10
2023-03-28T16:20:30.285Z,2.00
2023-03-28T16:21:30.307Z,2.10
2023-03-28T16:22:30.262Z,2.00
2023-03-28T16:23:30.234Z,2.00
2023-03-28T16:24:30.227Z,1.90
2023-03-28T16:25:30.225Z,2.10
2023-03-28T16:26:30.239Z,2.00
2023-03-28T16:27:30.185Z,2.00
2023-03-28T16:28:30.162Z,2.00
2023-03-28T16:29:30.178Z,1.90
2023-03-28T16:30:30.157Z,1.80
2023-03-28T16:31:30.210Z,1.70
2023-03-28T16:32:30.216Z,1.90
2023-03-28T16:33:30.129Z,1.70
2023-03-28T16:34:30.494Z,1.80
2023-03-28T16:35:30.153Z,1.80
2023-03-28T16:36:30.145Z,1.80
2023-03-28T16:37:30.088Z,1.60
2023-03-28T16:38:30.089Z,1.70
2023-03-28T16:39:30.035Z,1.60
2023-03-28T16:40:30.027Z,1.60
2023-03-28T16:41:30.082Z,1.70
2023-03-28T16:42:30.032Z,1.80
2023-03-28T16:43:30.328Z,1.70
2023-03-28T16:44:30.006Z,1.70
2023-03-28T16:45:30.017Z,1.50
2023-03-28T16:46:30.023Z,1.70
2023-03-28T16:47:30.010Z,1.60
2023-03-28T16:48:29.954Z,1.80
2023-03-28T16:49:29.957Z,1.80
2023-03-28T16:50:29.912Z,1.80
2023-03-28T16:51:29.914Z,2.00
2023-03-28T16:52:30.136Z,1.90
2023-03-28T16:53:29.875Z,1.90
2023-03-28T16:54:29.885Z,2.00
2023-03-28T16:55:29.885Z,1.90
2023-03-28T16:56:29.842Z,1.80
2023-03-28T16:57:29.826Z,2.00
2023-03-28T16:58:29.908Z,1.70
2023-03-28T16:59:29.825Z,1.70
2023-03-28T17:00:29.797Z,1.90
2023-03-28T17:01:29.849Z,1.70
2023-03-28T17:02:29.899Z,1.80
2023-03-28T17:03:30.929Z,1.90
2023-03-28T17:04:30.086Z,2.00
2023-03-28T17:05:29.760Z,2.10
2023-03-28T17:06:29.729Z,1.90
2023-03-28T17:07:29.752Z,1.90
2023-03-28T17:08:29.712Z,2.00
2023-03-28T17:09:29.752Z,2.00
2023-03-28T17:10:29.696Z,2.10
2023-03-28T17:11:29.720Z,2.10
2023-03-28T17:12:29.658Z,2.00
2023-03-28T17:13:29.665Z,2.30
2023-03-28T17:14:29.697Z,2.20
2023-03-28T17:15:29.634Z,2.20
2023-03-28T17:16:29.661Z,2.10
2023-03-28T17:17:30.685Z,2.30
2023-03-28T17:18:29.606Z,2.20
2023-03-28T17:19:29.647Z,2.10
2023-03-28T17:20:29.605Z,2.10
2023-03-28T17:21:29.571Z,2.30
2023-03-28T17:22:29.718Z,2.20
2023-03-28T17:23:29.564Z,2.10
2023-03-28T17:24:29.556Z,2.30
2023-03-28T17:28:09.920Z,2.20
2023-03-28T17:29:09.825Z,2.10
2023-03-28T17:30:09.986Z,1.90
2023-03-28T17:31:09.802Z,2.20
2023-03-28T17:32:09.726Z,2.10
2023-03-28T17:33:09.772Z,2.40
2023-03-28T17:34:09.702Z,2.00
2023-03-28T17:35:09.838Z,2.20
2023-03-28T17:36:09.777Z,2.10
2023-03-28T17:37:09.770Z,2.20
2023-03-28T17:38:09.664Z,2.20
2023-03-28T17:39:09.648Z,2.20
2023-03-28T17:40:09.657Z,2.50
2023-03-28T17:41:09.620Z,2.20
2023-03-28T17:42:09.683Z,2.10
2023-03-28T17:43:09.592Z,1.90
2023-03-28T17:44:09.584Z,2.10
2023-03-28T17:45:20.125Z,2.20
2023-03-28T17:46:09.971Z,2.20
2023-03-28T17:47:09.746Z,2.10
2023-03-28T17:48:09.950Z,2.00
2023-03-28T17:49:09.554Z,2.00
2023-03-28T17:50:09.632Z,2.20
2023-03-28T17:51:09.619Z,2.10
2023-03-28T17:52:09.728Z,2.20
2023-03-28T17:53:09.657Z,2.10
2023-03-28T17:54:09.553Z,2.20
2023-03-28T17:57:24.765Z,2.20
2023-03-28T17:58:24.693Z,2.20
2023-03-28T17:59:24.630Z,2.10
2023-03-28T18:00:24.717Z,2.20
2023-03-28T18:01:24.508Z,2.10
2023-03-28T18:02:24.702Z,2.20
2023-03-28T18:03:24.570Z,2.10
2023-03-28T18:04:24.480Z,2.10
2023-03-28T18:05:24.448Z,2.10
2023-03-28T18:06:24.443Z,2.20
2023-03-28T18:07:24.459Z,2.20
2023-03-28T18:08:24.441Z,2.20
2023-03-28T18:09:24.402Z,2.30
2023-03-28T18:10:24.387Z,2.30
2023-03-28T18:11:24.373Z,2.50
2023-03-28T18:12:24.366Z,2.80
2023-03-28T18:13:24.352Z,2.60
2023-03-28T18:14:24.450Z,2.30
2023-03-28T18:15:34.990Z,2.60
2023-03-28T18:16:24.612Z,2.50
2023-03-28T18:17:24.565Z,2.60
2023-03-28T18:18:24.492Z,2.60
2023-03-28T18:19:24.360Z,2.40
2023-03-28T18:20:25.265Z,2.40
2023-03-28T18:21:24.359Z,2.30
2023-03-28T18:22:24.333Z,2.30
2023-03-28T18:23:24.313Z,2.50
2023-03-28T18:24:24.230Z,2.40
2023-03-28T18:25:24.271Z,2.30
2023-03-28T18:26:24.460Z,2.20
2023-03-28T18:27:24.200Z,2.40
2023-03-28T18:28:24.192Z,2.30
2023-03-28T18:29:24.174Z,2.20
2023-03-28T18:30:24.231Z,2.00
2023-03-28T18:31:26.475Z,2.40
2023-03-28T18:32:24.200Z,2.30
2023-03-28T18:33:24.138Z,2.40
2023-03-28T18:34:34.392Z,2.50
2023-03-28T18:35:25.594Z,2.30
2023-03-28T18:36:25.557Z,2.10
2023-03-28T18:37:25.347Z,2.20
2023-03-28T18:38:25.209Z,2.20
2023-03-28T18:39:25.217Z,2.10
2023-03-28T18:40:25.183Z,2.10
2023-03-28T18:41:25.185Z,2.30
2023-03-28T18:42:25.137Z,2.40
2023-03-28T18:43:25.148Z,2.20
2023-03-28T18:44:25.147Z,2.40
2023-03-28T18:45:25.123Z,2.30
2023-03-28T18:46:25.228Z,2.30
2023-03-28T18:47:25.137Z,2.30
2023-03-28T18:48:25.099Z,2.40
2023-03-28T18:49:25.106Z,2.20
2023-03-28T18:50:25.074Z,2.30
2023-03-28T18:51:25.196Z,2.40
2023-03-28T18:52:28.360Z,2.70
2023-03-28T18:53:25.033Z,2.10
2023-03-28T18:56:12.910Z,2.30
2023-03-28T18:57:12.916Z,2.10
2023-03-28T18:58:12.782Z,2.30
2023-03-28T18:59:12.781Z,2.30
2023-03-28T19:00:12.756Z,2.80
2023-03-28T19:01:12.876Z,2.40
2023-03-28T19:02:12.787Z,2.40
2023-03-28T19:03:12.853Z,2.30
2023-03-28T19:04:12.781Z,2.20
2023-03-28T19:05:12.728Z,2.00
2023-03-28T19:06:12.677Z,2.10
2023-03-28T19:07:12.652Z,2.00
2023-03-28T19:08:12.668Z,2.00
2023-03-28T19:09:12.645Z,2.00
2023-03-28T19:10:12.654Z,1.80
2023-03-28T19:11:12.613Z,2.10
2023-03-28T19:12:12.607Z,2.10
2023-03-28T19:13:12.630Z,1.90
2023-03-28T19:14:12.573Z,2.00
2023-03-28T19:15:12.558Z,1.90
2023-03-28T19:16:12.608Z,2.20
2023-03-28T19:17:12.530Z,2.00
2023-03-28T19:18:12.568Z,2.20
2023-03-28T19:21:10.697Z,2.10
2023-03-28T19:22:10.582Z,2.00
2023-03-28T19:23:10.138Z,1.90
2023-03-28T19:24:09.332Z,2.20
2023-03-28T19:25:09.384Z,1.90
2023-03-28T19:26:09.334Z,1.90
2023-03-28T19:27:09.333Z,2.20
2023-03-28T19:28:09.281Z,1.80
2023-03-28T19:29:09.285Z,2.00
2023-03-28T19:30:09.247Z,1.90
2023-03-28T19:31:09.405Z,2.00
2023-03-28T19:32:10.839Z,2.00
2023-03-28T19:33:09.361Z,2.10
2023-03-28T19:34:09.210Z,2.10
2023-03-28T19:35:09.193Z,2.10
2023-03-28T19:36:09.252Z,2.10
2023-03-28T19:37:09.217Z,2.10
2023-03-28T19:38:09.161Z,2.00
2023-03-28T19:39:09.157Z,2.00
2023-03-28T19:40:09.131Z,2.10
2023-03-28T19:41:10.868Z,2.10
2023-03-28T19:42:09.115Z,1.90
2023-03-28T19:43:09.226Z,1.90
2023-03-28T19:44:09.283Z,2.00
2023-03-28T19:45:09.137Z,1.90
2023-03-28T19:46:09.144Z,2.00
2023-03-28T19:47:09.124Z,2.00
2023-03-28T19:48:09.097Z,2.10
2023-03-28T19:49:09.080Z,2.10
2023-03-28T19:50:09.033Z,1.80
2023-03-28T19:51:09.017Z,2.00
2023-03-28T19:52:19.412Z,1.90
2023-03-28T19:53:09.945Z,2.00
2023-03-28T20:14:56.854Z,2.00
2023-03-28T20:15:54.907Z,1.90
2023-03-28T20:16:54.858Z,2.10
2023-03-28T20:17:54.901Z,2.00
2023-03-28T20:18:54.732Z,1.90
2023-03-28T20:19:54.840Z,2.10
2023-03-28T20:20:54.694Z,2.00
2023-03-28T20:21:54.626Z,2.20
2023-03-28T20:22:54.623Z,2.20
2023-03-28T20:23:55.236Z,2.00
2023-03-28T20:24:54.606Z,2.00
2023-03-28T20:25:54.585Z,1.90
2023-03-28T20:26:54.591Z,2.00
2023-03-28T20:27:54.544Z,2.20
2023-03-28T20:28:54.574Z,2.00
2023-03-28T20:29:54.520Z,2.00
2023-03-28T20:30:54.548Z,2.10
2023-03-28T20:31:54.661Z,2.00
2023-03-28T20:32:54.504Z,2.10
2023-03-28T20:33:54.478Z,2.20
2023-03-28T20:34:54.493Z,2.10
2023-03-28T20:35:54.509Z,2.20
2023-03-28T20:36:54.434Z,2.00
2023-03-28T20:37:54.491Z,1.90
2023-03-28T20:38:54.420Z,2.20
2023-03-28T20:39:54.418Z,2.10
2023-03-28T20:40:54.450Z,2.00
2023-03-28T20:41:54.383Z,2.00
2023-03-28T20:43:07.257Z,2.10
2023-03-28T20:43:54.525Z,2.20
2023-03-28T20:44:54.423Z,2.20
2023-03-28T20:45:54.428Z,2.00
2023-03-28T20:46:54.380Z,2.10
2023-03-28T20:47:55.454Z,2.10
2023-03-28T20:48:55.479Z,2.10
2023-03-28T20:49:55.419Z,2.30
2023-03-28T20:50:55.456Z,1.90
2023-03-28T20:51:55.415Z,2.10
2023-03-28T20:52:55.384Z,2.10
2023-03-28T20:53:55.404Z,2.20
2023-03-28T20:54:55.348Z,2.00
2023-03-28T20:55:55.564Z,2.20
2023-03-28T20:56:55.390Z,2.10
2023-03-28T20:57:55.357Z,2.20
2023-03-28T20:59:30.568Z,2.00
2023-03-28T20:59:55.653Z,2.10
2023-03-28T21:00:55.605Z,2.10
2023-03-28T21:01:55.410Z,2.10
2023-03-28T21:02:55.309Z,2.20
2023-03-28T21:03:55.251Z,2.00
2023-03-28T21:04:55.330Z,1.90
2023-03-28T21:05:55.256Z,2.20
2023-03-28T21:06:55.217Z,2.00
2023-03-28T21:09:43.866Z,1.60
2023-03-28T21:10:32.535Z,1.60
2023-03-28T21:11:32.568Z,1.60
2023-03-28T21:12:32.398Z,1.70
2023-03-28T21:13:32.382Z,1.80
2023-03-28T21:14:32.376Z,1.60
2023-03-28T21:15:32.369Z,1.80
2023-03-28T21:16:32.620Z,1.90
2023-03-28T21:20:03.495Z,3.50
2023-03-28T21:21:01.662Z,7.10
2023-03-28T21:22:01.407Z,3.90
2023-03-28T21:23:01.288Z,2.20
2023-03-28T21:24:01.411Z,6.70
2023-03-28T21:25:01.217Z,3.10
2023-03-28T21:26:01.191Z,3.00
2023-03-28T21:28:52.830Z,0.90
2023-03-28T21:29:52.856Z,1.40
2023-03-28T21:30:52.780Z,1.70
2023-03-28T21:31:52.752Z,1.70
2023-03-28T21:32:52.891Z,2.10
2023-03-28T21:33:52.678Z,2.10
2023-03-28T21:34:52.632Z,2.20
2023-03-28T21:35:52.721Z,1.90
2023-03-28T21:36:52.612Z,1.90
2023-03-28T21:40:52.009Z,2.20
2023-03-28T21:41:51.190Z,2.10
2023-03-28T21:42:51.295Z,2.30
2023-03-28T21:43:51.078Z,2.30
2023-03-28T21:44:51.052Z,2.30
2023-03-28T21:49:00.577Z,2.10
2023-03-28T21:50:00.590Z,2.00
2023-03-28T21:51:00.928Z,2.20
2023-03-28T21:52:00.461Z,2.40
2023-03-28T21:53:00.422Z,2.40
2023-03-28T21:54:00.378Z,2.30
2023-03-28T21:55:00.363Z,2.40
2023-03-28T21:56:00.379Z,2.30
2023-03-28T21:57:00.453Z,2.40
2023-03-28T21:58:00.375Z,2.40
2023-03-28T22:00:12.027Z,2.10
2023-03-28T22:01:22.154Z,2.40
2023-03-28T22:02:12.021Z,2.30
2023-03-28T22:03:12.134Z,2.40
2023-03-28T22:04:11.767Z,2.30
2023-03-28T22:05:26.203Z,2.50
2023-03-28T22:06:11.762Z,2.30
2023-03-28T22:07:11.712Z,2.50
2023-03-28T22:08:11.688Z,2.30
2023-03-28T22:09:11.729Z,2.50
2023-03-28T22:11:23.256Z,2.50
2023-03-28T22:13:57.497Z,1.20
2023-03-28T22:14:57.378Z,1.00
2023-03-28T22:15:57.514Z,1.40
2023-03-28T22:16:57.269Z,2.00
2023-03-28T22:17:57.284Z,2.10
2023-03-28T22:18:57.247Z,2.00
2023-03-28T22:22:27.527Z,2.20
2023-03-28T22:23:27.565Z,2.40
2023-03-28T22:24:27.490Z,2.50
2023-03-28T22:25:27.434Z,2.30
2023-03-28T22:26:27.615Z,2.20
2023-03-28T22:27:27.378Z,2.40
2023-03-28T22:28:37.834Z,2.50
2023-03-28T22:29:27.541Z,2.40
2023-03-28T22:30:27.590Z,2.50
2023-03-28T22:31:27.521Z,2.40
2023-03-28T22:32:39.563Z,2.60
2023-03-28T22:33:27.462Z,2.50
2023-03-28T22:34:27.359Z,2.50
2023-03-28T22:35:27.303Z,2.50
2023-03-28T22:36:27.249Z,2.50
2023-03-28T22:37:27.231Z,2.60
2023-03-28T22:38:27.295Z,2.60
2023-03-28T22:44:04.648Z,1.50
2023-03-28T22:45:04.659Z,2.10
2023-03-28T22:46:04.781Z,2.50
2023-03-28T22:47:04.541Z,2.30
2023-03-28T22:48:04.648Z,1.80
2023-03-28T22:50:51.137Z,2.30
2023-03-28T22:51:51.151Z,1.90
2023-03-28T22:52:51.074Z,2.40
2023-03-28T22:53:51.160Z,2.60
2023-03-28T22:54:50.973Z,2.40
2023-03-28T22:55:51.903Z,2.30
2023-03-28T22:56:50.988Z,2.30
2023-03-28T23:00:06.020Z,2.60
2023-03-28T23:01:06.113Z,2.50
2023-03-28T23:02:06.137Z,2.40
2023-03-28T23:03:05.983Z,2.30
2023-03-28T23:04:06.001Z,2.50
2023-03-28T23:05:05.873Z,2.50
2023-03-28T23:06:05.852Z,2.70
2023-03-28T23:07:05.847Z,2.90
2023-03-28T23:08:05.782Z,3.10
2023-03-28T23:09:05.768Z,2.70
2023-03-28T23:10:05.752Z,2.80
2023-03-28T23:11:16.250Z,3.60
2023-03-28T23:12:05.940Z,3.60
2023-03-28T23:13:05.965Z,2.60
2023-03-28T23:14:05.838Z,3.30
2023-03-28T23:16:15.593Z,3.80
2023-03-28T23:17:15.556Z,4.00
2023-03-28T23:18:15.470Z,4.20
2023-03-28T23:19:15.534Z,4.60
2023-03-28T23:20:15.508Z,4.30
2023-03-28T23:23:32.674Z,4.70
2023-03-28T23:24:31.932Z,4.80
2023-03-28T23:25:31.825Z,5.10
2023-03-28T23:26:31.884Z,5.60
2023-03-28T23:27:31.731Z,5.10
2023-03-28T23:28:31.823Z,5.10
2023-03-28T23:31:36.008Z,2.10
2023-03-28T23:32:36.037Z,3.20
2023-03-28T23:33:35.895Z,2.10
2023-03-28T23:34:35.968Z,2.20
2023-03-28T23:35:35.851Z,3.80
2023-03-28T23:36:35.802Z,4.50
2023-03-28T23:39:28.853Z,6.30
2023-03-28T23:40:28.875Z,6.30
2023-03-28T23:41:28.879Z,6.30
2023-03-28T23:42:28.835Z,6.50
2023-03-28T23:43:28.741Z,7.00
2023-03-28T23:44:28.686Z,6.90
2023-03-28T23:45:28.706Z,7.00
2023-03-28T23:48:26.845Z,3.70
2023-03-28T23:49:26.881Z,3.20
2023-03-28T23:50:26.814Z,4.30
2023-03-28T23:51:26.814Z,5.30
2023-03-28T23:52:26.765Z,5.60
2023-03-28T23:53:26.832Z,4.60
2023-03-28T23:54:26.671Z,5.70
2023-03-28T23:55:26.623Z,5.80
2023-03-28T23:56:26.625Z,6.00
2023-03-28T23:57:26.618Z,5.80
2023-03-28T23:58:26.651Z,5.90
2023-03-28T23:59:26.574Z,6.10
